Terminal Aerodrome Forecast
Issued by NWS Wilmington, NC

Home | Current Version | Previous Version | Text Only | Print | Product List | Glossary On
Versions: 1 2 3 4 5 6 7 8 9 10 11 12 13 14 15 16 17 18 19 20 21 22 23
000
FTUS42 KILM 241100
TAFILM
TAF
KILM 241129Z 2412/2512 22007KT P6SM FEW008 FEW030
     FM241400 25010KT P6SM SCT030 SCT100
     FM241800 23010G18KT P6SM VCTS SCT035CB BKN080
      TEMPO 2419/2422 VRB20KT 3SM TSRA BKN020CB
     FM242200 22012KT P6SM VCSH SCT050 BKN100
     FM250200 25005KT P6SM VCSH SCT030 BKN050=

USA.gov is the U.S. government's official web portal to all federal, state and local government web resources and services.